• Join FlightAware (Why Join?)
  • Login
  • US Flag 
11:56AM EST


 

Airport Tracker/Info


-or-


 

Live Flight TrackerFlight Track Log ✈ N1250V ✈ 07-Aug-2013 ✈ KLUK - KCKV

Flight Track Log - Related Links

Times and Time Zones

All times are in EDT time to prevent confusion due to time zone crossing. See the N1250V flight status page for this flight to view local times or setup timezone preferences in your user account.

Time Position Orientation Groundspeed Altitude Reporting Facility
EDT Latitude Longitude Course Direction KTS MPH feet Rate Location/Type
11:21AM 39.0833 -84.4167 195° South 135 155 1,200  Level Cincinnati TRACON
11:22AM 39.0333 -84.4333 195° South 203 234 2,300 1,200 Climbing Cincinnati TRACON
11:23AM 38.9833 -84.4500 195° South 208 239 3,700 1,620 Climbing Cincinnati TRACON
11:24AM 38.9514 -84.5017 232° Southwest 247 284 5,200 1,980 Climbing Indianapolis Center
11:25AM 38.9147 -84.5397 219° Southwest 202 232 7,300 1,980 Climbing Indianapolis Center
11:26AM 38.8628 -84.6017 223° Southwest 207 238 9,400 1,740 Climbing Indianapolis Center
11:27AM 38.8158 -84.6561 222° Southwest 222 255 10,900 1,440 Climbing Indianapolis Center
11:28AM 38.7658 -84.7125 221° Southwest 235 270 12,400 1,500 Climbing Indianapolis Center
11:29AM 38.7164 -84.7728 224° Southwest 246 283 14,100 1,620 Climbing Indianapolis Center
11:30AM 38.6869 -84.8464 243° Southwest 235 270 15,800 1,380 Climbing Indianapolis Center
11:31AM 38.6489 -84.9211 237° Southwest 246 283 17,000 1,380 Climbing Indianapolis Center
11:32AM 38.6086 -85.0092 240° Southwest 254 292 18,700 1,320 Climbing Indianapolis Center
11:33AM 38.5700 -85.0836 236° Southwest 252 290 19,800 600 Climbing Indianapolis Center
11:34AM 38.5283 -85.1667 237° Southwest 272 313 20,000 60 Climbing Indianapolis Center
11:36AM 38.4861 -85.2569 239° Southwest 297 342 20,000  Level Indianapolis Center
11:37AM 38.4383 -85.3528 238° Southwest 315 362 20,000  Level Indianapolis Center
11:38AM 38.3892 -85.4508 237° Southwest 325 374 20,000  Level Indianapolis Center
11:39AM 38.3306 -85.5700 238° Southwest 329 379 20,000  Level Indianapolis Center
11:40AM 38.2806 -85.6697 237° Southwest 333 383 20,000  Level Indianapolis Center
11:41AM 38.2308 -85.7683 237° Southwest 330 380 20,000  Level Indianapolis Center
11:42AM 38.1811 -85.8667 237° Southwest 330 380 20,000  Level Indianapolis Center
11:43AM 38.1331 -85.9639 238° Southwest 326 375 20,000  Level Indianapolis Center
11:44AM 38.0839 -86.0636 238° Southwest 329 379 20,000  Level Indianapolis Center
11:45AM 38.0161 -86.1414 222° Southwest 337 388 20,000  Level Indianapolis Center
11:46AM 37.9425 -86.2128 217° Southwest 331 381 20,000  Level Indianapolis Center
11:47AM 37.8667 -86.2831 216° Southwest 333 383 20,000  Level Indianapolis Center
11:48AM 37.7833 -86.3631 217° Southwest 337 388 20,000  Level Indianapolis Center
11:49AM 37.7075 -86.4325 216° Southwest 335 386 20,000  Level Indianapolis Center
11:50AM 37.6306 -86.5008 215° Southwest 335 386 20,000 -120 Level Indianapolis Center
11:51AM 37.5469 -86.5806 217° Southwest 340 391 19,800 -1,020 Descending Indianapolis Center
11:52AM 37.4797 -86.6431 216° Southwest 331 381 18,000 -2,040 Descending Indianapolis Center
11:53AM 37.3978 -86.7169 216° Southwest 311 358 15,700 -2,220 Descending Indianapolis Center
11:54AM 37.3286 -86.7808 216° Southwest 306 352 13,500 -1,860 Descending Indianapolis Center
11:55AM 37.2608 -86.8406 215° Southwest 299 344 12,000 -1,200 Descending Indianapolis Center
11:56AM 37.1983 -86.8961 215° Southwest 279 321 11,100 -840 Descending Indianapolis Center
11:57AM 37.1394 -86.9525 217° Southwest 267 307 10,300 -960 Descending Indianapolis Center
11:58AM 37.1028 -86.9886 218° Southwest 277 319 9,700 -960 Descending Memphis Center
11:59AM 37.0525 -87.0558 227° Southwest 277 319 8,900 -600 Descending Memphis Center
12:00PM 37.0147 -87.1250 236° Southwest 263 303 8,600 -420 Descending Memphis Center
12:01PM 36.9708 -87.1994 234° Southwest 243 280 8,100 -480 Descending Memphis Center
12:02PM 36.9350 -87.2631 235° Southwest 252 290 7,700 -720 Descending Memphis Center
12:03PM 36.8950 -87.3294 233° Southwest 252 290 6,800 -900 Descending Memphis Center
12:04PM 36.8669 -87.3825 237° Southwest 214 246 5,900 -1,320 Descending Memphis Center
12:05PM 36.8408 -87.4250 232° Southwest 161 185 4,200 -1,500 Descending Memphis Center
12:06PM 36.8125 -87.4597 224° Southwest 143 165 3,000 -780 Descending Memphis Center
12:07PM 36.7772 -87.4636 185° South 137 158 2,700 -420 Descending Memphis Center
12:08PM 36.7311 -87.4497 166° South 135 155 2,200 -480 Descending Memphis Center